Terminal Aerodrome Forecast
Issued by NWS Jackson, MS

Home | Current Version | Previous Version | Text Only | Print | Product List | Glossary On
Versions: 1 2 3 4 5 6 7 8 9 10 11 12
000
FTUS44 KJAN 232321
TAFJAN
TAF
KJAN 232321Z 2400/2424 24004KT P6SM SCT025 OVC040
     FM240600 28003KT P6SM SCT007 OVC015
     FM241600 30010KT P6SM SCT015 BKN025
     FM242000 32010KT P6SM SCT025 BKN040=

USA.gov is the U.S. government's official web portal to all federal, state and local government web resources and services.